sensor_id;sensor_type;location;lat;lon;timestamp;temperature;humidity
24408;DHT22;12542;50.924;4.516;2022-10-26T00:02:14;14.30;99.90
24408;DHT22;12542;50.924;4.516;2022-10-26T00:04:40;14.30;99.90
24408;DHT22;12542;50.924;4.516;2022-10-26T00:07:06;14.40;99.90
24408;DHT22;12542;50.924;4.516;2022-10-26T00:09:32;14.60;99.90
24408;DHT22;12542;50.924;4.516;2022-10-26T00:11:58;14.50;99.90
24408;DHT22;12542;50.924;4.516;2022-10-26T00:14:24;14.60;99.90
24408;DHT22;12542;50.924;4.516;2022-10-26T00:16:50;14.40;99.90
24408;DHT22;12542;50.924;4.516;2022-10-26T00:19:19;14.40;99.90
24408;DHT22;12542;50.924;4.516;2022-10-26T00:21:45;14.50;99.90
24408;DHT22;12542;50.924;4.516;2022-10-26T00:24:10;14.40;99.90
24408;DHT22;12542;50.924;4.516;2022-10-26T00:26:38;14.40;99.90
24408;DHT22;12542;50.924;4.516;2022-10-26T00:29:04;14.30;99.90
24408;DHT22;12542;50.924;4.516;2022-10-26T00:31:30;14.50;99.90
24408;DHT22;12542;50.924;4.516;2022-10-26T00:33:56;14.40;99.90
24408;DHT22;12542;50.924;4.516;2022-10-26T00:36:23;14.40;99.90
24408;DHT22;12542;50.924;4.516;2022-10-26T00:38:54;14.40;99.90
24408;DHT22;12542;50.924;4.516;2022-10-26T00:41:27;14.50;99.90
24408;DHT22;12542;50.924;4.516;2022-10-26T00:43:53;14.50;99.90
24408;DHT22;12542;50.924;4.516;2022-10-26T00:46:30;14.40;99.90
24408;DHT22;12542;50.924;4.516;2022-10-26T00:49:17;14.30;99.90
24408;DHT22;12542;50.924;4.516;2022-10-26T00:51:50;14.30;99.90
24408;DHT22;12542;50.924;4.516;2022-10-26T00:54:17;14.20;99.90
24408;DHT22;12542;50.924;4.516;2022-10-26T00:56:45;14.20;99.90
24408;DHT22;12542;50.924;4.516;2022-10-26T00:59:14;14.40;99.90
24408;DHT22;12542;50.924;4.516;2022-10-26T01:01:43;14.40;99.90
24408;DHT22;12542;50.924;4.516;2022-10-26T01:04:11;14.30;99.90
24408;DHT22;12542;50.924;4.516;2022-10-26T01:06:41;14.40;99.90
24408;DHT22;12542;50.924;4.516;2022-10-26T01:09:07;14.50;99.90
24408;DHT22;12542;50.924;4.516;2022-10-26T01:11:33;14.60;99.90
24408;DHT22;12542;50.924;4.516;2022-10-26T01:14:03;14.70;99.90
24408;DHT22;12542;50.924;4.516;2022-10-26T01:22:43;14.60;99.90
24408;DHT22;12542;50.924;4.516;2022-10-26T01:28:30;14.50;99.90
24408;DHT22;12542;50.924;4.516;2022-10-26T01:31:00;14.30;99.90
24408;DHT22;12542;50.924;4.516;2022-10-26T01:33:38;14.30;99.90
24408;DHT22;12542;50.924;4.516;2022-10-26T01:36:33;14.50;99.90
24408;DHT22;12542;50.924;4.516;2022-10-26T01:39:15;14.40;99.90
24408;DHT22;12542;50.924;4.516;2022-10-26T01:41:47;14.60;99.90
24408;DHT22;12542;50.924;4.516;2022-10-26T01:47:16;14.50;99.90
24408;DHT22;12542;50.924;4.516;2022-10-26T01:49:49;14.50;99.90
24408;DHT22;12542;50.924;4.516;2022-10-26T01:52:18;14.60;99.90
24408;DHT22;12542;50.924;4.516;2022-10-26T01:54:43;14.60;99.90
24408;DHT22;12542;50.924;4.516;2022-10-26T01:57:13;14.60;99.90
24408;DHT22;12542;50.924;4.516;2022-10-26T02:03:11;14.70;99.90
24408;DHT22;12542;50.924;4.516;2022-10-26T02:05:47;14.70;99.90
24408;DHT22;12542;50.924;4.516;2022-10-26T02:08:25;14.70;99.90
24408;DHT22;12542;50.924;4.516;2022-10-26T02:11:15;14.80;99.90
24408;DHT22;12542;50.924;4.516;2022-10-26T02:13:54;14.90;99.90
24408;DHT22;12542;50.924;4.516;2022-10-26T02:22:32;15.00;99.90
24408;DHT22;12542;50.924;4.516;2022-10-26T02:25:13;14.80;99.90
24408;DHT22;12542;50.924;4.516;2022-10-26T02:27:48;15.00;99.90
24408;DHT22;12542;50.924;4.516;2022-10-26T02:30:15;14.90;99.90
24408;DHT22;12542;50.924;4.516;2022-10-26T02:32:47;14.90;99.90
24408;DHT22;12542;50.924;4.516;2022-10-26T02:35:15;14.80;99.90
24408;DHT22;12542;50.924;4.516;2022-10-26T02:37:44;14.70;99.90
24408;DHT22;12542;50.924;4.516;2022-10-26T02:40:14;14.60;99.90
24408;DHT22;12542;50.924;4.516;2022-10-26T02:42:43;14.80;99.90
24408;DHT22;12542;50.924;4.516;2022-10-26T02:45:12;14.80;99.90
24408;DHT22;12542;50.924;4.516;2022-10-26T02:47:43;14.80;99.90
24408;DHT22;12542;50.924;4.516;2022-10-26T02:50:12;14.70;99.90
24408;DHT22;12542;50.924;4.516;2022-10-26T02:55:15;14.80;99.90
24408;DHT22;12542;50.924;4.516;2022-10-26T02:57:46;14.90;99.90
24408;DHT22;12542;50.924;4.516;2022-10-26T03:00:16;14.90;99.90
24408;DHT22;12542;50.924;4.516;2022-10-26T03:02:44;14.80;99.90
24408;DHT22;12542;50.924;4.516;2022-10-26T03:05:29;15.00;99.90
24408;DHT22;12542;50.924;4.516;2022-10-26T03:07:57;15.10;99.90
24408;DHT22;12542;50.924;4.516;2022-10-26T03:10:23;15.00;99.90
24408;DHT22;12542;50.924;4.516;2022-10-26T03:12:49;14.90;99.90
24408;DHT22;12542;50.924;4.516;2022-10-26T03:15:15;14.90;99.90
24408;DHT22;12542;50.924;4.516;2022-10-26T03:17:41;14.90;99.90
24408;DHT22;12542;50.924;4.516;2022-10-26T03:20:08;15.00;99.90
24408;DHT22;12542;50.924;4.516;2022-10-26T03:22:33;15.10;99.90
24408;DHT22;12542;50.924;4.516;2022-10-26T03:24:59;15.00;99.90
24408;DHT22;12542;50.924;4.516;2022-10-26T03:27:25;15.00;99.90
24408;DHT22;12542;50.924;4.516;2022-10-26T03:29:51;15.00;99.90
24408;DHT22;12542;50.924;4.516;2022-10-26T03:32:17;15.20;99.90
24408;DHT22;12542;50.924;4.516;2022-10-26T03:34:43;15.30;99.90
24408;DHT22;12542;50.924;4.516;2022-10-26T03:37:09;15.20;99.90
24408;DHT22;12542;50.924;4.516;2022-10-26T03:39:35;15.20;99.90
24408;DHT22;12542;50.924;4.516;2022-10-26T03:42:01;15.10;99.90
24408;DHT22;12542;50.924;4.516;2022-10-26T03:44:27;15.10;99.90
24408;DHT22;12542;50.924;4.516;2022-10-26T03:46:53;15.10;99.90
24408;DHT22;12542;50.924;4.516;2022-10-26T03:49:18;15.20;99.90
24408;DHT22;12542;50.924;4.516;2022-10-26T03:51:44;15.20;99.90
24408;DHT22;12542;50.924;4.516;2022-10-26T03:54:10;15.20;99.90
24408;DHT22;12542;50.924;4.516;2022-10-26T03:56:36;15.20;99.90
24408;DHT22;12542;50.924;4.516;2022-10-26T03:59:01;15.00;99.90
24408;DHT22;12542;50.924;4.516;2022-10-26T04:01:27;15.10;99.90
24408;DHT22;12542;50.924;4.516;2022-10-26T04:03:53;15.10;99.90
24408;DHT22;12542;50.924;4.516;2022-10-26T04:06:21;15.10;99.90
24408;DHT22;12542;50.924;4.516;2022-10-26T04:08:46;15.20;99.90
24408;DHT22;12542;50.924;4.516;2022-10-26T04:11:13;15.20;99.90
24408;DHT22;12542;50.924;4.516;2022-10-26T04:13:38;15.00;99.90
24408;DHT22;12542;50.924;4.516;2022-10-26T04:16:04;15.10;99.90
24408;DHT22;12542;50.924;4.516;2022-10-26T04:18:31;15.10;99.90
24408;DHT22;12542;50.924;4.516;2022-10-26T04:21:00;15.10;99.90
24408;DHT22;12542;50.924;4.516;2022-10-26T04:23:26;15.20;99.90
24408;DHT22;12542;50.924;4.516;2022-10-26T04:25:52;15.20;99.90
24408;DHT22;12542;50.924;4.516;2022-10-26T04:28:18;15.40;99.90
24408;DHT22;12542;50.924;4.516;2022-10-26T04:30:43;15.40;99.90
24408;DHT22;12542;50.924;4.516;2022-10-26T04:33:12;15.30;99.90
24408;DHT22;12542;50.924;4.516;2022-10-26T04:35:38;15.40;99.90
24408;DHT22;12542;50.924;4.516;2022-10-26T04:38:05;15.40;99.90
24408;DHT22;12542;50.924;4.516;2022-10-26T04:40:32;15.40;99.90
24408;DHT22;12542;50.924;4.516;2022-10-26T04:42:58;15.50;99.90
24408;DHT22;12542;50.924;4.516;2022-10-26T04:45:24;15.50;99.90
24408;DHT22;12542;50.924;4.516;2022-10-26T04:48:00;15.50;99.90
24408;DHT22;12542;50.924;4.516;2022-10-26T04:50:26;15.50;99.90
24408;DHT22;12542;50.924;4.516;2022-10-26T04:52:52;15.50;99.90
24408;DHT22;12542;50.924;4.516;2022-10-26T04:55:18;15.50;99.90
24408;DHT22;12542;50.924;4.516;2022-10-26T04:57:44;15.50;99.90
24408;DHT22;12542;50.924;4.516;2022-10-26T05:00:13;15.50;99.90
24408;DHT22;12542;50.924;4.516;2022-10-26T05:02:39;15.60;99.90
24408;DHT22;12542;50.924;4.516;2022-10-26T05:05:08;15.60;99.90
24408;DHT22;12542;50.924;4.516;2022-10-26T05:07:35;15.60;99.90
24408;DHT22;12542;50.924;4.516;2022-10-26T05:10:01;15.70;99.90
24408;DHT22;12542;50.924;4.516;2022-10-26T05:12:27;15.70;99.90
24408;DHT22;12542;50.924;4.516;2022-10-26T05:14:52;15.60;99.90
24408;DHT22;12542;50.924;4.516;2022-10-26T05:17:24;15.70;99.90
24408;DHT22;12542;50.924;4.516;2022-10-26T05:19:49;15.70;99.90
24408;DHT22;12542;50.924;4.516;2022-10-26T05:22:22;15.70;99.90
24408;DHT22;12542;50.924;4.516;2022-10-26T05:24:48;15.70;99.90
24408;DHT22;12542;50.924;4.516;2022-10-26T05:27:14;15.70;99.90
24408;DHT22;12542;50.924;4.516;2022-10-26T05:29:40;15.80;99.90
24408;DHT22;12542;50.924;4.516;2022-10-26T05:32:05;15.70;99.90
24408;DHT22;12542;50.924;4.516;2022-10-26T05:34:31;15.70;99.90
24408;DHT22;12542;50.924;4.516;2022-10-26T05:36:57;15.70;99.90
24408;DHT22;12542;50.924;4.516;2022-10-26T05:39:23;15.70;99.90
24408;DHT22;12542;50.924;4.516;2022-10-26T05:41:48;15.70;99.90
24408;DHT22;12542;50.924;4.516;2022-10-26T05:44:14;15.70;99.90
24408;DHT22;12542;50.924;4.516;2022-10-26T05:46:40;15.60;99.90
24408;DHT22;12542;50.924;4.516;2022-10-26T05:49:05;15.60;99.90
24408;DHT22;12542;50.924;4.516;2022-10-26T05:51:34;15.50;99.90
24408;DHT22;12542;50.924;4.516;2022-10-26T05:54:02;15.50;99.90
24408;DHT22;12542;50.924;4.516;2022-10-26T05:56:37;15.50;99.90
24408;DHT22;12542;50.924;4.516;2022-10-26T05:59:09;15.50;99.90
24408;DHT22;12542;50.924;4.516;2022-10-26T06:04:37;15.50;99.90
24408;DHT22;12542;50.924;4.516;2022-10-26T06:07:12;15.50;99.90
24408;DHT22;12542;50.924;4.516;2022-10-26T06:09:39;15.50;99.90
24408;DHT22;12542;50.924;4.516;2022-10-26T06:12:06;15.50;99.90
24408;DHT22;12542;50.924;4.516;2022-10-26T06:14:33;15.70;99.90
24408;DHT22;12542;50.924;4.516;2022-10-26T06:23:35;15.60;99.90
24408;DHT22;12542;50.924;4.516;2022-10-26T06:26:16;15.50;99.90
24408;DHT22;12542;50.924;4.516;2022-10-26T06:29:23;15.50;99.90
24408;DHT22;12542;50.924;4.516;2022-10-26T06:31:52;15.50;99.90
24408;DHT22;12542;50.924;4.516;2022-10-26T06:34:28;15.60;99.90
24408;DHT22;12542;50.924;4.516;2022-10-26T06:36:57;15.60;99.90
24408;DHT22;12542;50.924;4.516;2022-10-26T06:39:30;15.50;99.90
24408;DHT22;12542;50.924;4.516;2022-10-26T06:41:57;15.60;99.90
24408;DHT22;12542;50.924;4.516;2022-10-26T06:44:23;15.70;99.90
24408;DHT22;12542;50.924;4.516;2022-10-26T06:52:20;15.90;99.90
24408;DHT22;12542;50.924;4.516;2022-10-26T06:54:52;15.80;99.90
24408;DHT22;12542;50.924;4.516;2022-10-26T06:57:23;15.70;99.90
24408;DHT22;12542;50.924;4.516;2022-10-26T07:00:06;15.80;99.90
24408;DHT22;12542;50.924;4.516;2022-10-26T07:02:32;15.90;99.90
24408;DHT22;12542;50.924;4.516;2022-10-26T07:04:58;16.40;99.90
24408;DHT22;12542;50.924;4.516;2022-10-26T07:07:26;16.70;99.90
24408;DHT22;12542;50.924;4.516;2022-10-26T07:09:53;16.50;99.90
24408;DHT22;12542;50.924;4.516;2022-10-26T07:12:21;16.60;99.90
24408;DHT22;12542;50.924;4.516;2022-10-26T07:14:47;16.70;99.90
24408;DHT22;12542;50.924;4.516;2022-10-26T07:17:13;16.60;99.90
24408;DHT22;12542;50.924;4.516;2022-10-26T07:19:39;16.80;99.90
24408;DHT22;12542;50.924;4.516;2022-10-26T07:22:05;17.90;99.90
24408;DHT22;12542;50.924;4.516;2022-10-26T07:24:33;19.40;99.90
24408;DHT22;12542;50.924;4.516;2022-10-26T07:27:00;20.70;99.90
24408;DHT22;12542;50.924;4.516;2022-10-26T07:29:26;21.70;99.90
24408;DHT22;12542;50.924;4.516;2022-10-26T07:31:52;21.90;99.90
24408;DHT22;12542;50.924;4.516;2022-10-26T07:34:18;22.30;99.90
24408;DHT22;12542;50.924;4.516;2022-10-26T07:36:44;22.30;99.90
24408;DHT22;12542;50.924;4.516;2022-10-26T07:39:11;22.80;99.90
24408;DHT22;12542;50.924;4.516;2022-10-26T07:41:36;24.40;99.90
24408;DHT22;12542;50.924;4.516;2022-10-26T07:44:05;25.10;99.90
24408;DHT22;12542;50.924;4.516;2022-10-26T07:46:30;25.40;99.90
24408;DHT22;12542;50.924;4.516;2022-10-26T07:48:56;26.10;99.80
24408;DHT22;12542;50.924;4.516;2022-10-26T07:51:22;26.30;98.70
24408;DHT22;12542;50.924;4.516;2022-10-26T07:53:47;26.10;99.20
24408;DHT22;12542;50.924;4.516;2022-10-26T07:56:14;26.50;98.80
24408;DHT22;12542;50.924;4.516;2022-10-26T07:58:42;27.10;98.10
24408;DHT22;12542;50.924;4.516;2022-10-26T08:01:13;26.80;97.20
24408;DHT22;12542;50.924;4.516;2022-10-26T08:03:39;27.00;97.50
24408;DHT22;12542;50.924;4.516;2022-10-26T08:06:05;28.00;96.10
24408;DHT22;12542;50.924;4.516;2022-10-26T08:08:32;28.10;95.40
24408;DHT22;12542;50.924;4.516;2022-10-26T08:10:58;28.60;94.80
24408;DHT22;12542;50.924;4.516;2022-10-26T08:13:25;29.00;94.50
24408;DHT22;12542;50.924;4.516;2022-10-26T08:16:02;30.30;92.80
24408;DHT22;12542;50.924;4.516;2022-10-26T08:18:28;30.90;91.60
24408;DHT22;12542;50.924;4.516;2022-10-26T08:20:54;31.70;90.00
24408;DHT22;12542;50.924;4.516;2022-10-26T08:23:20;31.40;88.60
24408;DHT22;12542;50.924;4.516;2022-10-26T08:25:46;32.00;88.30
24408;DHT22;12542;50.924;4.516;2022-10-26T08:28:12;30.80;89.20
24408;DHT22;12542;50.924;4.516;2022-10-26T08:30:38;31.30;88.20
24408;DHT22;12542;50.924;4.516;2022-10-26T08:33:05;30.70;89.70
24408;DHT22;12542;50.924;4.516;2022-10-26T08:35:32;31.00;89.00
24408;DHT22;12542;50.924;4.516;2022-10-26T08:37:58;31.20;88.00
24408;DHT22;12542;50.924;4.516;2022-10-26T08:40:37;31.20;89.00
24408;DHT22;12542;50.924;4.516;2022-10-26T08:46:15;30.90;88.40
24408;DHT22;12542;50.924;4.516;2022-10-26T08:48:54;31.00;90.10
24408;DHT22;12542;50.924;4.516;2022-10-26T08:51:28;30.70;88.90
24408;DHT22;12542;50.924;4.516;2022-10-26T08:53:56;31.00;89.20
24408;DHT22;12542;50.924;4.516;2022-10-26T08:56:33;30.50;90.00
24408;DHT22;12542;50.924;4.516;2022-10-26T08:59:11;30.70;89.80
24408;DHT22;12542;50.924;4.516;2022-10-26T09:01:39;30.20;88.50
24408;DHT22;12542;50.924;4.516;2022-10-26T09:04:10;29.40;91.50
24408;DHT22;12542;50.924;4.516;2022-10-26T09:09:18;28.80;92.40
24408;DHT22;12542;50.924;4.516;2022-10-26T09:23:34;26.50;97.30
24408;DHT22;12542;50.924;4.516;2022-10-26T09:26:02;26.50;97.80
24408;DHT22;12542;50.924;4.516;2022-10-26T09:28:36;26.60;97.40
24408;DHT22;12542;50.924;4.516;2022-10-26T09:31:03;26.30;97.80
24408;DHT22;12542;50.924;4.516;2022-10-26T09:33:34;26.20;98.30
24408;DHT22;12542;50.924;4.516;2022-10-26T09:36:07;25.80;98.80
24408;DHT22;12542;50.924;4.516;2022-10-26T09:38:43;25.70;99.70
24408;DHT22;12542;50.924;4.516;2022-10-26T09:46:26;25.30;99.90
24408;DHT22;12542;50.924;4.516;2022-10-26T09:49:03;25.60;99.90
24408;DHT22;12542;50.924;4.516;2022-10-26T09:51:29;25.60;99.90
24408;DHT22;12542;50.924;4.516;2022-10-26T09:53:56;25.50;99.90
24408;DHT22;12542;50.924;4.516;2022-10-26T09:56:25;25.50;99.90
24408;DHT22;12542;50.924;4.516;2022-10-26T09:58:54;25.50;99.90
24408;DHT22;12542;50.924;4.516;2022-10-26T10:06:46;25.80;99.90
24408;DHT22;12542;50.924;4.516;2022-10-26T10:11:58;25.90;99.90
24408;DHT22;12542;50.924;4.516;2022-10-26T10:14:58;25.80;99.90
24408;DHT22;12542;50.924;4.516;2022-10-26T10:17:24;26.10;99.90
24408;DHT22;12542;50.924;4.516;2022-10-26T10:19:51;26.30;99.90
24408;DHT22;12542;50.924;4.516;2022-10-26T10:22:24;26.50;99.90
24408;DHT22;12542;50.924;4.516;2022-10-26T10:27:20;26.40;99.40
24408;DHT22;12542;50.924;4.516;2022-10-26T10:29:49;26.10;99.30
24408;DHT22;12542;50.924;4.516;2022-10-26T10:34:46;25.50;99.90
24408;DHT22;12542;50.924;4.516;2022-10-26T10:37:31;25.70;99.90
24408;DHT22;12542;50.924;4.516;2022-10-26T10:40:08;26.10;99.90
24408;DHT22;12542;50.924;4.516;2022-10-26T10:42:39;26.40;99.80
24408;DHT22;12542;50.924;4.516;2022-10-26T10:45:12;25.90;99.60
24408;DHT22;12542;50.924;4.516;2022-10-26T10:50:29;25.00;99.70
24408;DHT22;12542;50.924;4.516;2022-10-26T10:53:34;25.00;99.90
24408;DHT22;12542;50.924;4.516;2022-10-26T11:01:39;25.30;99.90
24408;DHT22;12542;50.924;4.516;2022-10-26T11:07:00;25.20;99.90
24408;DHT22;12542;50.924;4.516;2022-10-26T11:09:33;25.30;99.50
24408;DHT22;12542;50.924;4.516;2022-10-26T11:12:26;25.10;99.90
24408;DHT22;12542;50.924;4.516;2022-10-26T11:15:00;25.10;99.90
24408;DHT22;12542;50.924;4.516;2022-10-26T11:17:30;25.10;99.90
24408;DHT22;12542;50.924;4.516;2022-10-26T11:20:05;25.00;99.90
24408;DHT22;12542;50.924;4.516;2022-10-26T11:25:24;24.40;99.90
24408;DHT22;12542;50.924;4.516;2022-10-26T11:27:55;24.40;99.90
24408;DHT22;12542;50.924;4.516;2022-10-26T11:30:23;24.20;99.90
24408;DHT22;12542;50.924;4.516;2022-10-26T11:33:14;24.40;99.90
24408;DHT22;12542;50.924;4.516;2022-10-26T11:36:04;24.70;99.90
24408;DHT22;12542;50.924;4.516;2022-10-26T11:41:28;24.30;99.90
24408;DHT22;12542;50.924;4.516;2022-10-26T11:46:50;24.40;99.90
24408;DHT22;12542;50.924;4.516;2022-10-26T11:52:13;24.40;99.90
24408;DHT22;12542;50.924;4.516;2022-10-26T11:54:55;24.30;99.90
24408;DHT22;12542;50.924;4.516;2022-10-26T11:57:22;24.10;99.90
24408;DHT22;12542;50.924;4.516;2022-10-26T11:59:53;24.00;99.90
24408;DHT22;12542;50.924;4.516;2022-10-26T12:02:23;23.80;99.90
24408;DHT22;12542;50.924;4.516;2022-10-26T12:05:05;23.70;99.90
24408;DHT22;12542;50.924;4.516;2022-10-26T12:07:38;23.80;99.90
24408;DHT22;12542;50.924;4.516;2022-10-26T12:10:09;23.80;99.90
24408;DHT22;12542;50.924;4.516;2022-10-26T12:12:45;24.10;99.90
24408;DHT22;12542;50.924;4.516;2022-10-26T12:15:38;24.00;99.90
24408;DHT22;12542;50.924;4.516;2022-10-26T12:18:13;24.10;99.90
24408;DHT22;12542;50.924;4.516;2022-10-26T12:21:00;24.20;99.90
24408;DHT22;12542;50.924;4.516;2022-10-26T12:23:29;23.90;99.90
24408;DHT22;12542;50.924;4.516;2022-10-26T12:34:11;23.90;99.90
24408;DHT22;12542;50.924;4.516;2022-10-26T12:36:51;24.10;99.90
24408;DHT22;12542;50.924;4.516;2022-10-26T12:39:41;24.10;99.90
24408;DHT22;12542;50.924;4.516;2022-10-26T12:44:37;24.10;99.90
24408;DHT22;12542;50.924;4.516;2022-10-26T12:47:07;24.10;99.90
24408;DHT22;12542;50.924;4.516;2022-10-26T12:55:46;24.10;99.90
24408;DHT22;12542;50.924;4.516;2022-10-26T12:58:44;24.10;99.90
24408;DHT22;12542;50.924;4.516;2022-10-26T13:01:39;23.90;99.90
24408;DHT22;12542;50.924;4.516;2022-10-26T13:09:44;23.70;99.90
24408;DHT22;12542;50.924;4.516;2022-10-26T13:12:10;23.60;99.90
24408;DHT22;12542;50.924;4.516;2022-10-26T13:14:40;23.40;99.90
24408;DHT22;12542;50.924;4.516;2022-10-26T13:17:24;23.30;99.90
24408;DHT22;12542;50.924;4.516;2022-10-26T13:20:02;23.20;99.90
24408;DHT22;12542;50.924;4.516;2022-10-26T13:22:28;23.20;99.90
24408;DHT22;12542;50.924;4.516;2022-10-26T13:25:01;23.20;99.90
24408;DHT22;12542;50.924;4.516;2022-10-26T13:32:41;23.20;99.90
24408;DHT22;12542;50.924;4.516;2022-10-26T13:35:13;23.20;99.90
24408;DHT22;12542;50.924;4.516;2022-10-26T13:37:43;22.90;99.90
24408;DHT22;12542;50.924;4.516;2022-10-26T13:40:12;22.90;99.90
24408;DHT22;12542;50.924;4.516;2022-10-26T13:42:46;22.70;99.90
24408;DHT22;12542;50.924;4.516;2022-10-26T13:45:16;22.70;99.90
24408;DHT22;12542;50.924;4.516;2022-10-26T13:50:27;22.50;99.90
24408;DHT22;12542;50.924;4.516;2022-10-26T13:53:25;22.40;99.90
24408;DHT22;12542;50.924;4.516;2022-10-26T13:56:03;22.40;99.90
24408;DHT22;12542;50.924;4.516;2022-10-26T13:58:36;22.40;99.90
24408;DHT22;12542;50.924;4.516;2022-10-26T14:03:34;22.50;99.90
24408;DHT22;12542;50.924;4.516;2022-10-26T14:08:32;22.60;99.90
24408;DHT22;12542;50.924;4.516;2022-10-26T14:10:58;22.70;99.90
24408;DHT22;12542;50.924;4.516;2022-10-26T14:13:26;22.60;99.90
24408;DHT22;12542;50.924;4.516;2022-10-26T14:15:55;22.60;99.90
24408;DHT22;12542;50.924;4.516;2022-10-26T14:18:24;22.60;99.90
24408;DHT22;12542;50.924;4.516;2022-10-26T14:21:18;22.70;99.90
24408;DHT22;12542;50.924;4.516;2022-10-26T14:23:59;22.70;99.90
24408;DHT22;12542;50.924;4.516;2022-10-26T14:26:36;22.70;99.90
24408;DHT22;12542;50.924;4.516;2022-10-26T14:29:02;22.70;99.90
24408;DHT22;12542;50.924;4.516;2022-10-26T14:31:30;22.60;99.90
24408;DHT22;12542;50.924;4.516;2022-10-26T14:33:58;22.30;99.90
24408;DHT22;12542;50.924;4.516;2022-10-26T14:36:29;22.30;99.90
24408;DHT22;12542;50.924;4.516;2022-10-26T14:41:59;22.10;99.90
24408;DHT22;12542;50.924;4.516;2022-10-26T14:44:26;22.20;99.90
24408;DHT22;12542;50.924;4.516;2022-10-26T14:46:53;22.10;99.90
24408;DHT22;12542;50.924;4.516;2022-10-26T14:49:24;22.10;99.90
24408;DHT22;12542;50.924;4.516;2022-10-26T14:51:59;22.10;99.90
24408;DHT22;12542;50.924;4.516;2022-10-26T14:54:31;22.20;99.90
24408;DHT22;12542;50.924;4.516;2022-10-26T14:56:58;22.10;99.90
24408;DHT22;12542;50.924;4.516;2022-10-26T14:59:32;22.10;99.90
24408;DHT22;12542;50.924;4.516;2022-10-26T15:05:14;22.10;99.90
24408;DHT22;12542;50.924;4.516;2022-10-26T15:07:41;22.20;99.90
24408;DHT22;12542;50.924;4.516;2022-10-26T15:13:09;22.20;99.90
24408;DHT22;12542;50.924;4.516;2022-10-26T15:15:36;22.10;99.90
24408;DHT22;12542;50.924;4.516;2022-10-26T15:18:02;22.00;99.90
24408;DHT22;12542;50.924;4.516;2022-10-26T15:20:29;22.00;99.90
24408;DHT22;12542;50.924;4.516;2022-10-26T15:23:00;22.00;99.90
24408;DHT22;12542;50.924;4.516;2022-10-26T15:25:28;22.00;99.90
24408;DHT22;12542;50.924;4.516;2022-10-26T15:28:05;21.80;99.90
24408;DHT22;12542;50.924;4.516;2022-10-26T15:30:32;21.70;99.90
24408;DHT22;12542;50.924;4.516;2022-10-26T15:33:19;21.70;99.90
24408;DHT22;12542;50.924;4.516;2022-10-26T15:35:46;21.60;99.90
24408;DHT22;12542;50.924;4.516;2022-10-26T15:38:11;21.50;99.90
24408;DHT22;12542;50.924;4.516;2022-10-26T15:40:42;21.50;99.90
24408;DHT22;12542;50.924;4.516;2022-10-26T15:43:09;21.50;99.90
24408;DHT22;12542;50.924;4.516;2022-10-26T15:45:45;21.40;99.90
24408;DHT22;12542;50.924;4.516;2022-10-26T15:48:27;21.30;99.90
24408;DHT22;12542;50.924;4.516;2022-10-26T15:50:55;21.40;99.90
24408;DHT22;12542;50.924;4.516;2022-10-26T15:53:23;21.30;99.90
24408;DHT22;12542;50.924;4.516;2022-10-26T15:55:53;21.30;99.90
24408;DHT22;12542;50.924;4.516;2022-10-26T15:58:20;21.10;99.90
24408;DHT22;12542;50.924;4.516;2022-10-26T16:00:46;20.90;99.90
24408;DHT22;12542;50.924;4.516;2022-10-26T16:03:17;20.90;99.90
24408;DHT22;12542;50.924;4.516;2022-10-26T16:05:43;20.90;99.90
24408;DHT22;12542;50.924;4.516;2022-10-26T16:08:14;21.00;99.90
24408;DHT22;12542;50.924;4.516;2022-10-26T16:10:41;21.00;99.90
24408;DHT22;12542;50.924;4.516;2022-10-26T16:13:16;20.80;99.90
24408;DHT22;12542;50.924;4.516;2022-10-26T16:15:41;20.80;99.90
24408;DHT22;12542;50.924;4.516;2022-10-26T16:18:10;20.60;99.90
24408;DHT22;12542;50.924;4.516;2022-10-26T16:20:36;20.70;99.90
24408;DHT22;12542;50.924;4.516;2022-10-26T16:23:02;20.70;99.90
24408;DHT22;12542;50.924;4.516;2022-10-26T16:25:43;20.60;99.90
24408;DHT22;12542;50.924;4.516;2022-10-26T16:28:14;20.50;99.90
24408;DHT22;12542;50.924;4.516;2022-10-26T16:30:41;20.50;99.90
24408;DHT22;12542;50.924;4.516;2022-10-26T16:33:07;20.50;99.90
24408;DHT22;12542;50.924;4.516;2022-10-26T16:35:32;20.50;99.90
24408;DHT22;12542;50.924;4.516;2022-10-26T16:37:58;20.40;99.90
24408;DHT22;12542;50.924;4.516;2022-10-26T16:40:24;20.30;99.90
24408;DHT22;12542;50.924;4.516;2022-10-26T16:42:52;20.30;99.90
24408;DHT22;12542;50.924;4.516;2022-10-26T16:45:18;20.20;99.90
24408;DHT22;12542;50.924;4.516;2022-10-26T16:47:44;20.10;99.90
24408;DHT22;12542;50.924;4.516;2022-10-26T16:50:11;20.00;99.90
24408;DHT22;12542;50.924;4.516;2022-10-26T16:52:38;19.90;99.90
24408;DHT22;12542;50.924;4.516;2022-10-26T16:55:06;19.90;99.90
24408;DHT22;12542;50.924;4.516;2022-10-26T16:57:34;19.90;99.90
24408;DHT22;12542;50.924;4.516;2022-10-26T16:59:59;19.80;99.90
24408;DHT22;12542;50.924;4.516;2022-10-26T17:02:26;19.70;99.90
24408;DHT22;12542;50.924;4.516;2022-10-26T17:04:51;19.60;99.90
24408;DHT22;12542;50.924;4.516;2022-10-26T17:07:17;19.50;99.90
24408;DHT22;12542;50.924;4.516;2022-10-26T17:09:43;19.40;99.90
24408;DHT22;12542;50.924;4.516;2022-10-26T17:12:09;19.40;99.90
24408;DHT22;12542;50.924;4.516;2022-10-26T17:14:36;19.30;99.90
24408;DHT22;12542;50.924;4.516;2022-10-26T17:17:02;19.30;99.90
24408;DHT22;12542;50.924;4.516;2022-10-26T17:19:28;19.40;99.90
24408;DHT22;12542;50.924;4.516;2022-10-26T17:21:54;19.30;99.90
24408;DHT22;12542;50.924;4.516;2022-10-26T17:24:21;19.30;99.90
24408;DHT22;12542;50.924;4.516;2022-10-26T17:26:46;19.20;99.90
24408;DHT22;12542;50.924;4.516;2022-10-26T17:29:13;19.10;99.90
24408;DHT22;12542;50.924;4.516;2022-10-26T17:31:39;19.10;99.90
24408;DHT22;12542;50.924;4.516;2022-10-26T17:34:05;19.20;99.90
24408;DHT22;12542;50.924;4.516;2022-10-26T17:36:31;19.10;99.90
24408;DHT22;12542;50.924;4.516;2022-10-26T17:38:57;19.20;99.90
24408;DHT22;12542;50.924;4.516;2022-10-26T17:41:25;19.20;99.90
24408;DHT22;12542;50.924;4.516;2022-10-26T17:43:50;19.20;99.90
24408;DHT22;12542;50.924;4.516;2022-10-26T17:46:20;19.10;99.90
24408;DHT22;12542;50.924;4.516;2022-10-26T17:48:47;19.20;99.90
24408;DHT22;12542;50.924;4.516;2022-10-26T17:51:15;19.20;99.90
24408;DHT22;12542;50.924;4.516;2022-10-26T17:53:42;19.10;99.90
24408;DHT22;12542;50.924;4.516;2022-10-26T17:56:15;19.20;99.90
24408;DHT22;12542;50.924;4.516;2022-10-26T17:58:41;19.20;99.90
24408;DHT22;12542;50.924;4.516;2022-10-26T18:01:10;19.10;99.90
24408;DHT22;12542;50.924;4.516;2022-10-26T18:03:37;19.10;99.90
24408;DHT22;12542;50.924;4.516;2022-10-26T18:06:03;19.10;99.90
24408;DHT22;12542;50.924;4.516;2022-10-26T18:08:35;19.10;99.90
24408;DHT22;12542;50.924;4.516;2022-10-26T18:11:02;19.10;99.90